sensor_id;sensor_type;location;lat;lon;timestamp;pressure;altitude;pressure_sealevel;temperature;humidity
38780;BME280;29273;49.962;9.768;2024-02-28T00:00:23;99879.72;;;8.94;53.56
38780;BME280;29273;49.962;9.768;2024-02-28T00:02:49;99878.47;;;8.89;53.63
38780;BME280;29273;49.962;9.768;2024-02-28T00:05:14;99884.94;;;8.87;53.52
38780;BME280;29273;49.962;9.768;2024-02-28T00:07:40;99889.97;;;8.82;53.25
38780;BME280;29273;49.962;9.768;2024-02-28T00:10:06;99887.25;;;8.75;53.34
38780;BME280;29273;49.962;9.768;2024-02-28T00:12:31;99895.72;;;8.70;53.44
38780;BME280;29273;49.962;9.768;2024-02-28T00:14:57;99904.00;;;8.67;53.32
38780;BME280;29273;49.962;9.768;2024-02-28T00:17:22;99909.03;;;8.62;53.35
38780;BME280;29273;49.962;9.768;2024-02-28T00:19:48;99906.13;;;8.57;53.27
38780;BME280;29273;49.962;9.768;2024-02-28T00:22:13;99903.88;;;8.54;53.27
38780;BME280;29273;49.962;9.768;2024-02-28T00:24:39;99907.91;;;8.50;53.43
38780;BME280;29273;49.962;9.768;2024-02-28T00:27:04;99908.44;;;8.45;53.64
38780;BME280;29273;49.962;9.768;2024-02-28T00:29:30;99909.66;;;8.43;53.65
38780;BME280;29273;49.962;9.768;2024-02-28T00:31:55;99915.25;;;8.40;53.62
38780;BME280;29273;49.962;9.768;2024-02-28T00:34:21;99920.72;;;8.38;53.78
38780;BME280;29273;49.962;9.768;2024-02-28T00:36:46;99920.91;;;8.37;53.80
38780;BME280;29273;49.962;9.768;2024-02-28T00:39:12;99912.38;;;8.34;53.80
38780;BME280;29273;49.962;9.768;2024-02-28T00:41:37;99918.63;;;8.33;53.95
38780;BME280;29273;49.962;9.768;2024-02-28T00:44:03;99921.44;;;8.32;53.63
38780;BME280;29273;49.962;9.768;2024-02-28T00:46:28;99919.19;;;8.29;53.53
38780;BME280;29273;49.962;9.768;2024-02-28T00:48:54;99915.91;;;8.27;53.55
38780;BME280;29273;49.962;9.768;2024-02-28T00:51:19;99921.56;;;8.24;53.54
38780;BME280;29273;49.962;9.768;2024-02-28T00:53:45;99920.91;;;8.22;53.69
38780;BME280;29273;49.962;9.768;2024-02-28T00:56:10;99916.81;;;8.19;53.90
38780;BME280;29273;49.962;9.768;2024-02-28T00:58:36;99917.00;;;8.18;54.30
38780;BME280;29273;49.962;9.768;2024-02-28T01:01:01;99921.28;;;8.19;54.27
38780;BME280;29273;49.962;9.768;2024-02-28T01:03:27;99927.53;;;8.18;54.50
38780;BME280;29273;49.962;9.768;2024-02-28T01:05:52;99924.09;;;8.17;54.64
38780;BME280;29273;49.962;9.768;2024-02-28T01:08:18;99922.28;;;8.18;55.00
38780;BME280;29273;49.962;9.768;2024-02-28T01:10:44;99920.28;;;8.20;54.76
38780;BME280;29273;49.962;9.768;2024-02-28T01:13:09;99920.09;;;8.21;54.61
38780;BME280;29273;49.962;9.768;2024-02-28T01:15:35;99913.00;;;8.22;54.66
38780;BME280;29273;49.962;9.768;2024-02-28T01:18:00;99926.00;;;8.23;54.87
38780;BME280;29273;49.962;9.768;2024-02-28T01:20:26;99926.00;;;8.23;54.89
38780;BME280;29273;49.962;9.768;2024-02-28T01:22:52;99934.56;;;8.25;55.17
38780;BME280;29273;49.962;9.768;2024-02-28T01:25:17;99921.00;;;8.28;55.22
38780;BME280;29273;49.962;9.768;2024-02-28T01:27:44;99925.91;;;8.31;55.17
38780;BME280;29273;49.962;9.768;2024-02-28T01:30:09;99917.81;;;8.33;55.12
38780;BME280;29273;49.962;9.768;2024-02-28T01:32:35;99922.06;;;8.34;55.08
38780;BME280;29273;49.962;9.768;2024-02-28T01:35:02;99917.28;;;8.38;55.00
38780;BME280;29273;49.962;9.768;2024-02-28T01:37:28;99924.16;;;8.39;55.17
38780;BME280;29273;49.962;9.768;2024-02-28T01:39:53;99924.97;;;8.39;55.08
38780;BME280;29273;49.962;9.768;2024-02-28T01:42:19;99929.09;;;8.42;55.10
38780;BME280;29273;49.962;9.768;2024-02-28T01:44:47;99930.19;;;8.47;54.93
38780;BME280;29273;49.962;9.768;2024-02-28T01:47:13;99928.13;;;8.43;55.06
38780;BME280;29273;49.962;9.768;2024-02-28T01:49:40;99930.19;;;8.47;54.86
38780;BME280;29273;49.962;9.768;2024-02-28T01:52:07;99944.03;;;8.49;55.01
38780;BME280;29273;49.962;9.768;2024-02-28T01:54:34;99936.56;;;8.53;54.98
38780;BME280;29273;49.962;9.768;2024-02-28T01:57:01;99933.09;;;8.52;54.95
38780;BME280;29273;49.962;9.768;2024-02-28T01:59:28;99926.44;;;8.57;55.01
38780;BME280;29273;49.962;9.768;2024-02-28T02:01:55;99928.28;;;8.56;55.00
38780;BME280;29273;49.962;9.768;2024-02-28T02:04:20;99924.81;;;8.56;55.14
38780;BME280;29273;49.962;9.768;2024-02-28T02:06:48;99932.00;;;8.62;55.01
38780;BME280;29273;49.962;9.768;2024-02-28T02:09:15;99941.09;;;8.59;55.23
38780;BME280;29273;49.962;9.768;2024-02-28T02:11:41;99938.66;;;8.58;55.35
38780;BME280;29273;49.962;9.768;2024-02-28T02:14:07;99937.63;;;8.59;55.42
38780;BME280;29273;49.962;9.768;2024-02-28T02:16:32;99949.00;;;8.59;55.43
38780;BME280;29273;49.962;9.768;2024-02-28T02:18:58;99942.09;;;8.58;55.44
38780;BME280;29273;49.962;9.768;2024-02-28T02:21:26;99947.38;;;8.58;55.61
38780;BME280;29273;49.962;9.768;2024-02-28T02:23:53;99949.22;;;8.58;55.76
38780;BME280;29273;49.962;9.768;2024-02-28T02:26:19;99951.84;;;8.58;55.71
38780;BME280;29273;49.962;9.768;2024-02-28T02:28:44;99956.28;;;8.57;55.80
38780;BME280;29273;49.962;9.768;2024-02-28T02:31:12;99960.41;;;8.60;55.45
38780;BME280;29273;49.962;9.768;2024-02-28T02:33:37;99963.03;;;8.60;55.76
38780;BME280;29273;49.962;9.768;2024-02-28T02:36:03;99960.59;;;8.58;55.67
38780;BME280;29273;49.962;9.768;2024-02-28T02:38:28;99966.69;;;8.59;55.71
38780;BME280;29273;49.962;9.768;2024-02-28T02:40:54;99969.31;;;8.59;55.77
38780;BME280;29273;49.962;9.768;2024-02-28T02:43:19;99964.03;;;8.59;55.71
38780;BME280;29273;49.962;9.768;2024-02-28T02:45:45;99973.59;;;8.60;55.79
38780;BME280;29273;49.962;9.768;2024-02-28T02:48:10;99968.13;;;8.61;55.96
38780;BME280;29273;49.962;9.768;2024-02-28T02:50:36;99964.47;;;8.62;55.91
38780;BME280;29273;49.962;9.768;2024-02-28T02:53:02;99974.22;;;8.62;55.96
38780;BME280;29273;49.962;9.768;2024-02-28T02:55:28;99981.34;;;8.61;56.05
38780;BME280;29273;49.962;9.768;2024-02-28T02:57:54;99984.78;;;8.62;56.07
38780;BME280;29273;49.962;9.768;2024-02-28T03:00:20;99993.34;;;8.64;56.15
38780;BME280;29273;49.962;9.768;2024-02-28T03:02:45;99996.81;;;8.64;56.09
38780;BME280;29273;49.962;9.768;2024-02-28T03:05:11;100000.28;;;8.65;56.13
38780;BME280;29273;49.962;9.768;2024-02-28T03:07:36;99997.44;;;8.66;56.06
38780;BME280;29273;49.962;9.768;2024-02-28T03:10:02;100002.72;;;8.66;56.14
38780;BME280;29273;49.962;9.768;2024-02-28T03:12:28;100000.53;;;8.70;56.11
38780;BME280;29273;49.962;9.768;2024-02-28T03:14:54;100011.09;;;8.70;56.09
38780;BME280;29273;49.962;9.768;2024-02-28T03:17:19;100005.63;;;8.72;56.18
38780;BME280;29273;49.962;9.768;2024-02-28T03:19:45;100006.63;;;8.70;56.03
38780;BME280;29273;49.962;9.768;2024-02-28T03:22:10;100008.28;;;8.72;56.07
38780;BME280;29273;49.962;9.768;2024-02-28T03:24:35;100015.81;;;8.75;55.63
38780;BME280;29273;49.962;9.768;2024-02-28T03:27:04;100017.25;;;8.77;55.67
38780;BME280;29273;49.962;9.768;2024-02-28T03:29:30;100022.28;;;8.72;56.17
38780;BME280;29273;49.962;9.768;2024-02-28T03:31:57;100021.09;;;8.75;56.17
38780;BME280;29273;49.962;9.768;2024-02-28T03:34:22;100022.72;;;8.76;56.17
38780;BME280;29273;49.962;9.768;2024-02-28T03:36:48;100021.91;;;8.75;56.16
38780;BME280;29273;49.962;9.768;2024-02-28T03:39:13;100029.66;;;8.77;56.25
38780;BME280;29273;49.962;9.768;2024-02-28T03:41:39;100029.66;;;8.77;56.17
38780;BME280;29273;49.962;9.768;2024-02-28T03:44:05;100029.47;;;8.78;56.15
38780;BME280;29273;49.962;9.768;2024-02-28T03:46:30;100025.84;;;8.79;56.11
38780;BME280;29273;49.962;9.768;2024-02-28T03:48:56;100014.44;;;8.79;56.15
38780;BME280;29273;49.962;9.768;2024-02-28T03:51:22;100025.63;;;8.81;56.21
38780;BME280;29273;49.962;9.768;2024-02-28T03:53:48;100028.28;;;8.81;56.08
38780;BME280;29273;49.962;9.768;2024-02-28T03:56:13;100030.56;;;8.84;56.09
38780;BME280;29273;49.962;9.768;2024-02-28T03:58:46;100032.19;;;8.85;56.12
38780;BME280;29273;49.962;9.768;2024-02-28T04:01:11;100032.19;;;8.85;56.25
38780;BME280;29273;49.962;9.768;2024-02-28T04:03:37;100045.03;;;8.88;56.18
38780;BME280;29273;49.962;9.768;2024-02-28T04:06:03;100049.28;;;8.89;56.23
38780;BME280;29273;49.962;9.768;2024-02-28T04:08:28;100053.41;;;8.92;56.12
38780;BME280;29273;49.962;9.768;2024-02-28T04:10:53;100060.13;;;8.94;56.00
38780;BME280;29273;49.962;9.768;2024-02-28T04:13:19;100057.47;;;8.94;56.10
38780;BME280;29273;49.962;9.768;2024-02-28T04:15:44;100056.31;;;8.97;55.98
38780;BME280;29273;49.962;9.768;2024-02-28T04:18:11;100058.78;;;8.98;55.95
38780;BME280;29273;49.962;9.768;2024-02-28T04:20:36;100062.22;;;8.99;55.88
38780;BME280;29273;49.962;9.768;2024-02-28T04:23:03;100063.88;;;9.00;55.72
38780;BME280;29273;49.962;9.768;2024-02-28T04:25:29;100072.78;;;8.99;55.77
38780;BME280;29273;49.962;9.768;2024-02-28T04:27:54;100071.16;;;8.98;55.77
38780;BME280;29273;49.962;9.768;2024-02-28T04:30:20;100085.00;;;9.00;55.42
38780;BME280;29273;49.962;9.768;2024-02-28T04:32:45;100078.91;;;8.99;55.52
38780;BME280;29273;49.962;9.768;2024-02-28T04:35:11;100085.00;;;9.00;55.49
38780;BME280;29273;49.962;9.768;2024-02-28T04:37:36;100085.19;;;8.98;55.49
38780;BME280;29273;49.962;9.768;2024-02-28T04:40:03;100080.53;;;9.00;55.21
38780;BME280;29273;49.962;9.768;2024-02-28T04:42:28;100086.63;;;9.01;55.36
38780;BME280;29273;49.962;9.768;2024-02-28T04:44:54;100085.81;;;9.00;55.40
38780;BME280;29273;49.962;9.768;2024-02-28T04:47:19;100091.72;;;9.02;55.37
38780;BME280;29273;49.962;9.768;2024-02-28T04:49:45;100090.91;;;9.02;55.52
38780;BME280;29273;49.962;9.768;2024-02-28T04:52:10;100094.38;;;9.02;55.57
38780;BME280;29273;49.962;9.768;2024-02-28T04:54:35;100089.91;;;9.03;55.45
38780;BME280;29273;49.962;9.768;2024-02-28T04:57:01;100096.81;;;9.04;55.38
38780;BME280;29273;49.962;9.768;2024-02-28T04:59:28;100094.84;;;9.06;55.11
38780;BME280;29273;49.962;9.768;2024-02-28T05:01:53;100102.56;;;9.07;55.18
38780;BME280;29273;49.962;9.768;2024-02-28T05:04:19;100101.75;;;9.07;55.21
38780;BME280;29273;49.962;9.768;2024-02-28T05:06:44;100101.38;;;9.10;55.16
38780;BME280;29273;49.962;9.768;2024-02-28T05:09:10;100103.22;;;9.10;55.08
38780;BME280;29273;49.962;9.768;2024-02-28T05:11:35;100098.75;;;9.10;55.10
38780;BME280;29273;49.962;9.768;2024-02-28T05:14:01;100097.09;;;9.09;54.96
38780;BME280;29273;49.962;9.768;2024-02-28T05:16:26;100104.22;;;9.08;54.77
38780;BME280;29273;49.962;9.768;2024-02-28T05:18:51;100112.31;;;9.07;54.87
38780;BME280;29273;49.962;9.768;2024-02-28T05:21:17;100114.34;;;9.05;54.75
38780;BME280;29273;49.962;9.768;2024-02-28T05:23:42;100118.81;;;9.04;54.73
38780;BME280;29273;49.962;9.768;2024-02-28T05:26:08;100111.25;;;9.01;54.84
38780;BME280;29273;49.962;9.768;2024-02-28T05:28:33;100112.22;;;9.00;54.83
38780;BME280;29273;49.962;9.768;2024-02-28T05:31:20;100103.75;;;9.05;54.89
38780;BME280;29273;49.962;9.768;2024-02-28T05:33:46;100109.78;;;8.99;55.03
38780;BME280;29273;49.962;9.768;2024-02-28T05:36:11;100109.94;;;8.97;55.28
38780;BME280;29273;49.962;9.768;2024-02-28T05:38:37;100108.34;;;8.96;55.05
38780;BME280;29273;49.962;9.768;2024-02-28T05:41:02;100113.63;;;8.96;55.26
38780;BME280;29273;49.962;9.768;2024-02-28T05:43:28;100119.88;;;8.95;55.08
38780;BME280;29273;49.962;9.768;2024-02-28T05:45:53;100123.53;;;8.94;54.91
38780;BME280;29273;49.962;9.768;2024-02-28T05:48:19;100135.75;;;8.95;55.08
38780;BME280;29273;49.962;9.768;2024-02-28T05:50:45;100134.94;;;8.95;55.08
38780;BME280;29273;49.962;9.768;2024-02-28T05:53:11;100148.31;;;8.93;55.07
38780;BME280;29273;49.962;9.768;2024-02-28T05:55:36;100148.50;;;8.92;55.16
38780;BME280;29273;49.962;9.768;2024-02-28T05:58:02;100150.31;;;8.91;55.11
38780;BME280;29273;49.962;9.768;2024-02-28T06:00:27;100157.59;;;8.89;55.17
38780;BME280;29273;49.962;9.768;2024-02-28T06:02:53;100162.88;;;8.89;55.36
38780;BME280;29273;49.962;9.768;2024-02-28T06:05:19;100162.06;;;8.88;55.23
38780;BME280;29273;49.962;9.768;2024-02-28T06:07:44;100156.78;;;8.88;55.18
38780;BME280;29273;49.962;9.768;2024-02-28T06:10:10;100164.06;;;8.86;55.20
38780;BME280;29273;49.962;9.768;2024-02-28T06:12:36;100169.34;;;8.86;55.25
38780;BME280;29273;49.962;9.768;2024-02-28T06:15:02;100166.91;;;8.85;55.27
38780;BME280;29273;49.962;9.768;2024-02-28T06:17:29;100164.44;;;8.83;55.20
38780;BME280;29273;49.962;9.768;2024-02-28T06:19:54;100173.53;;;8.81;55.18
38780;BME280;29273;49.962;9.768;2024-02-28T06:22:20;100176.16;;;8.81;55.22
38780;BME280;29273;49.962;9.768;2024-02-28T06:24:46;100188.72;;;8.79;55.31
38780;BME280;29273;49.962;9.768;2024-02-28T06:27:11;100189.94;;;8.76;55.33
38780;BME280;29273;49.962;9.768;2024-02-28T06:29:41;100193.03;;;8.80;55.11
38780;BME280;29273;49.962;9.768;2024-02-28T06:32:07;100196.38;;;8.74;55.43
38780;BME280;29273;49.962;9.768;2024-02-28T06:34:32;100204.31;;;8.74;55.39
38780;BME280;29273;49.962;9.768;2024-02-28T06:36:58;100212.41;;;8.72;55.54
38780;BME280;29273;49.962;9.768;2024-02-28T06:39:23;100215.84;;;8.73;55.45
38780;BME280;29273;49.962;9.768;2024-02-28T06:41:49;100212.41;;;8.72;55.57
38780;BME280;29273;49.962;9.768;2024-02-28T06:44:18;100214.88;;;8.74;55.31
38780;BME280;29273;49.962;9.768;2024-02-28T06:46:44;100217.03;;;8.70;55.46
38780;BME280;29273;49.962;9.768;2024-02-28T06:49:09;100213.59;;;8.69;55.49
38780;BME280;29273;49.962;9.768;2024-02-28T06:51:35;100212.94;;;8.67;55.42
38780;BME280;29273;49.962;9.768;2024-02-28T06:54:00;100207.81;;;8.66;55.50
38780;BME280;29273;49.962;9.768;2024-02-28T06:56:25;100228.13;;;8.65;55.39
38780;BME280;29273;49.962;9.768;2024-02-28T06:58:51;100228.31;;;8.64;55.37
38780;BME280;29273;49.962;9.768;2024-02-28T07:01:17;100226.50;;;8.64;55.41
38780;BME280;29273;49.962;9.768;2024-02-28T07:03:43;100232.97;;;8.62;55.32
38780;BME280;29273;49.962;9.768;2024-02-28T07:06:08;100235.78;;;8.60;55.18
38780;BME280;29273;49.962;9.768;2024-02-28T07:08:33;100227.84;;;8.60;55.03
38780;BME280;29273;49.962;9.768;2024-02-28T07:10:59;100227.22;;;8.58;55.08
38780;BME280;29273;49.962;9.768;2024-02-28T07:13:24;100228.66;;;8.61;55.22
38780;BME280;29273;49.962;9.768;2024-02-28T07:15:50;100224.41;;;8.60;55.11
38780;BME280;29273;49.962;9.768;2024-02-28T07:18:15;100236.59;;;8.61;55.10
38780;BME280;29273;49.962;9.768;2024-02-28T07:20:41;100233.13;;;8.60;55.04
38780;BME280;29273;49.962;9.768;2024-02-28T07:23:06;100232.31;;;8.60;55.02
38780;BME280;29273;49.962;9.768;2024-02-28T07:25:32;100234.13;;;8.59;54.95
38780;BME280;29273;49.962;9.768;2024-02-28T07:28:00;100239.91;;;8.63;54.85
38780;BME280;29273;49.962;9.768;2024-02-28T07:30:26;100235.94;;;8.59;54.96
38780;BME280;29273;49.962;9.768;2024-02-28T07:32:51;100239.41;;;8.59;55.06
38780;BME280;29273;49.962;9.768;2024-02-28T07:35:17;100238.59;;;8.59;54.85
38780;BME280;29273;49.962;9.768;2024-02-28T07:37:44;100243.88;;;8.59;54.74
38780;BME280;29273;49.962;9.768;2024-02-28T07:40:09;100237.94;;;8.57;54.86
38780;BME280;29273;49.962;9.768;2024-02-28T07:42:35;100244.88;;;8.58;54.76
38780;BME280;29273;49.962;9.768;2024-02-28T07:45:01;100254.59;;;8.57;54.75
38780;BME280;29273;49.962;9.768;2024-02-28T07:47:26;100253.63;;;8.58;54.55
38780;BME280;29273;49.962;9.768;2024-02-28T07:49:52;100252.13;;;8.56;54.01
38780;BME280;29273;49.962;9.768;2024-02-28T07:52:19;100250.34;;;8.56;54.00
38780;BME280;29273;49.962;9.768;2024-02-28T07:54:45;100245.88;;;8.57;53.93
38780;BME280;29273;49.962;9.768;2024-02-28T07:57:10;100247.88;;;8.55;54.13
38780;BME280;29273;49.962;9.768;2024-02-28T07:59:40;100243.69;;;8.60;54.35
38780;BME280;29273;49.962;9.768;2024-02-28T08:02:06;100241.41;;;8.57;54.39
38780;BME280;29273;49.962;9.768;2024-02-28T08:04:31;100239.78;;;8.56;54.45
38780;BME280;29273;49.962;9.768;2024-02-28T08:06:57;100238.59;;;8.59;54.46
38780;BME280;29273;49.962;9.768;2024-02-28T08:09:22;100238.41;;;8.60;54.38
38780;BME280;29273;49.962;9.768;2024-02-28T08:11:48;100239.72;;;8.64;54.39
38780;BME280;29273;49.962;9.768;2024-02-28T08:14:13;100234.22;;;8.66;54.32
38780;BME280;29273;49.962;9.768;2024-02-28T08:16:39;100242.63;;;8.69;54.44
38780;BME280;29273;49.962;9.768;2024-02-28T08:19:05;100238.81;;;8.72;54.58
38780;BME280;29273;49.962;9.768;2024-02-28T08:21:30;100244.53;;;8.76;54.32
38780;BME280;29273;49.962;9.768;2024-02-28T08:23:56;100231.16;;;8.77;54.22
38780;BME280;29273;49.962;9.768;2024-02-28T08:26:23;100249.28;;;8.80;54.32
38780;BME280;29273;49.962;9.768;2024-02-28T08:28:49;100243.66;;;8.83;54.32
38780;BME280;29273;49.962;9.768;2024-02-28T08:31:15;100249.41;;;8.87;54.14
38780;BME280;29273;49.962;9.768;2024-02-28T08:33:41;100237.66;;;8.89;54.04
38780;BME280;29273;49.962;9.768;2024-02-28T08:36:07;100237.50;;;8.91;53.86
38780;BME280;29273;49.962;9.768;2024-02-28T08:38:32;100236.13;;;8.95;54.01
38780;BME280;29273;49.962;9.768;2024-02-28T08:40:58;100241.03;;;8.98;53.87
38780;BME280;29273;49.962;9.768;2024-02-28T08:43:23;100235.41;;;9.01;53.75
38780;BME280;29273;49.962;9.768;2024-02-28T08:45:48;100235.03;;;9.04;53.84
38780;BME280;29273;49.962;9.768;2024-02-28T08:48:16;100229.38;;;9.07;53.67
38780;BME280;29273;49.962;9.768;2024-02-28T08:50:42;100239.59;;;9.11;53.50
38780;BME280;29273;49.962;9.768;2024-02-28T08:53:08;100248.19;;;9.13;53.57
38780;BME280;29273;49.962;9.768;2024-02-28T08:55:33;100252.25;;;9.15;53.53
38780;BME280;29273;49.962;9.768;2024-02-28T08:57:59;100250.25;;;9.17;53.64
38780;BME280;29273;49.962;9.768;2024-02-28T09:00:24;100264.94;;;9.20;53.21
38780;BME280;29273;49.962;9.768;2024-02-28T09:02:50;100270.03;;;9.21;52.92
38780;BME280;29273;49.962;9.768;2024-02-28T09:05:16;100267.22;;;9.23;53.04
38780;BME280;29273;49.962;9.768;2024-02-28T09:07:41;100264.41;;;9.24;53.02
38780;BME280;29273;49.962;9.768;2024-02-28T09:10:07;100274.78;;;9.26;52.79
38780;BME280;29273;49.962;9.768;2024-02-28T09:12:33;100264.03;;;9.28;52.75
38780;BME280;29273;49.962;9.768;2024-02-28T09:14:59;100261.19;;;9.29;52.82
38780;BME280;29273;49.962;9.768;2024-02-28T09:17:25;100265.66;;;9.29;52.69
38780;BME280;29273;49.962;9.768;2024-02-28T09:19:52;100268.94;;;9.31;52.41
38780;BME280;29273;49.962;9.768;2024-02-28T09:22:18;100274.22;;;9.31;51.98
38780;BME280;29273;49.962;9.768;2024-02-28T09:24:46;100279.34;;;9.32;52.02
38780;BME280;29273;49.962;9.768;2024-02-28T09:27:12;100276.06;;;9.30;51.94
38780;BME280;29273;49.962;9.768;2024-02-28T09:29:37;100278.53;;;9.32;52.08
38780;BME280;29273;49.962;9.768;2024-02-28T09:32:03;100275.69;;;9.33;52.31
38780;BME280;29273;49.962;9.768;2024-02-28T09:34:29;100280.97;;;9.33;52.26
38780;BME280;29273;49.962;9.768;2024-02-28T09:36:54;100280.97;;;9.33;52.40
38780;BME280;29273;49.962;9.768;2024-02-28T09:39:20;100281.78;;;9.34;52.34
38780;BME280;29273;49.962;9.768;2024-02-28T09:41:49;100277.63;;;9.39;52.91
38780;BME280;29273;49.962;9.768;2024-02-28T09:44:16;100280.25;;;9.39;52.72
38780;BME280;29273;49.962;9.768;2024-02-28T09:46:41;100276.59;;;9.40;52.57
38780;BME280;29273;49.962;9.768;2024-02-28T09:49:09;100281.34;;;9.45;52.68
38780;BME280;29273;49.962;9.768;2024-02-28T09:51:35;100280.34;;;9.46;52.18
38780;BME280;29273;49.962;9.768;2024-02-28T09:54:02;100281.00;;;9.48;52.09
38780;BME280;29273;49.962;9.768;2024-02-28T09:56:28;100284.25;;;9.50;51.99
38780;BME280;29273;49.962;9.768;2024-02-28T09:58:54;100290.84;;;9.54;52.19
38780;BME280;29273;49.962;9.768;2024-02-28T10:01:21;100286.81;;;9.58;52.35
38780;BME280;29273;49.962;9.768;2024-02-28T10:03:50;100297.22;;;9.60;52.29
38780;BME280;29273;49.962;9.768;2024-02-28T10:06:17;100287.44;;;9.60;51.91
38780;BME280;29273;49.962;9.768;2024-02-28T10:08:42;100303.13;;;9.62;51.37
38780;BME280;29273;49.962;9.768;2024-02-28T10:11:08;100291.38;;;9.65;51.56
38780;BME280;29273;49.962;9.768;2024-02-28T10:13:33;100305.41;;;9.65;51.30
38780;BME280;29273;49.962;9.768;2024-02-28T10:15:59;100300.75;;;9.67;51.10
38780;BME280;29273;49.962;9.768;2024-02-28T10:18:28;100301.50;;;9.76;51.58
38780;BME280;29273;49.962;9.768;2024-02-28T10:20:53;100303.66;;;9.72;50.46
38780;BME280;29273;49.962;9.768;2024-02-28T10:23:19;100301.50;;;9.76;50.68
38780;BME280;29273;49.962;9.768;2024-02-28T10:25:45;100316.97;;;9.79;50.65
38780;BME280;29273;49.962;9.768;2024-02-28T10:28:12;100315.81;;;9.81;50.13
38780;BME280;29273;49.962;9.768;2024-02-28T10:30:43;100318.34;;;9.90;50.96
38780;BME280;29273;49.962;9.768;2024-02-28T10:33:15;100313.50;;;9.93;50.14
38780;BME280;29273;49.962;9.768;2024-02-28T10:35:41;100310.03;;;9.93;49.74
38780;BME280;29273;49.962;9.768;2024-02-28T10:38:11;100310.94;;;10.00;50.67
38780;BME280;29273;49.962;9.768;2024-02-28T10:40:40;100314.41;;;10.00;49.77
38780;BME280;29273;49.962;9.768;2024-02-28T10:43:07;100320.97;;;10.05;49.59
38780;BME280;29273;49.962;9.768;2024-02-28T10:45:37;100320.78;;;10.06;49.55
38780;BME280;29273;49.962;9.768;2024-02-28T10:48:04;100325.06;;;10.07;48.97
38780;BME280;29273;49.962;9.768;2024-02-28T10:50:30;100322.22;;;10.09;48.86
38780;BME280;29273;49.962;9.768;2024-02-28T10:53:01;100318.66;;;10.16;50.86
38780;BME280;29273;49.962;9.768;2024-02-28T10:55:32;100315.84;;;10.18;50.16
38780;BME280;29273;49.962;9.768;2024-02-28T10:58:06;100317.28;;;10.21;50.13
38780;BME280;29273;49.962;9.768;2024-02-28T11:00:36;100317.28;;;10.21;48.86
38780;BME280;29273;49.962;9.768;2024-02-28T11:03:04;100313.44;;;10.23;48.24
38780;BME280;29273;49.962;9.768;2024-02-28T11:05:40;100312.53;;;10.31;49.20
38780;BME280;29273;49.962;9.768;2024-02-28T11:08:20;100308.69;;;10.33;50.02
38780;BME280;29273;49.962;9.768;2024-02-28T11:10:46;100308.88;;;10.32;47.62
38780;BME280;29273;49.962;9.768;2024-02-28T11:13:26;100312.22;;;10.41;49.16
38780;BME280;29273;49.962;9.768;2024-02-28T11:15:52;100314.06;;;10.40;46.79
38780;BME280;29273;49.962;9.768;2024-02-28T11:18:18;100306.38;;;10.45;46.65
38780;BME280;29273;49.962;9.768;2024-02-28T11:20:45;100305.00;;;10.49;46.11
38780;BME280;29273;49.962;9.768;2024-02-28T11:23:14;100301.75;;;10.54;46.03
38780;BME280;29273;49.962;9.768;2024-02-28T11:25:41;100308.34;;;10.58;45.92
38780;BME280;29273;49.962;9.768;2024-02-28T11:28:07;100307.78;;;10.63;46.07
38780;BME280;29273;49.962;9.768;2024-02-28T11:30:33;100310.84;;;10.66;45.54
38780;BME280;29273;49.962;9.768;2024-02-28T11:32:58;100310.28;;;10.71;45.91
38780;BME280;29273;49.962;9.768;2024-02-28T11:35:27;100311.78;;;10.80;47.04
38780;BME280;29273;49.962;9.768;2024-02-28T11:37:56;100310.22;;;10.64;49.62
38780;BME280;29273;49.962;9.768;2024-02-28T11:40:25;100307.28;;;10.81;45.91
38780;BME280;29273;49.962;9.768;2024-02-28T11:42:52;100308.81;;;10.90;46.21
38780;BME280;29273;49.962;9.768;2024-02-28T11:45:17;100304.97;;;10.92;46.08
38780;BME280;29273;49.962;9.768;2024-02-28T11:47:44;100301.72;;;10.97;45.95
38780;BME280;29273;49.962;9.768;2024-02-28T11:50:10;100292.59;;;11.00;45.94
38780;BME280;29273;49.962;9.768;2024-02-28T11:52:35;100291.19;;;11.04;45.59
38780;BME280;29273;49.962;9.768;2024-02-28T11:55:01;100287.34;;;11.06;44.87
38780;BME280;29273;49.962;9.768;2024-02-28T11:57:26;100289.41;;;11.11;44.97
38780;BME280;29273;49.962;9.768;2024-02-28T11:59:52;100293.13;;;11.17;45.05
38780;BME280;29273;49.962;9.768;2024-02-28T12:02:17;100279.28;;;11.21;44.68
38780;BME280;29273;49.962;9.768;2024-02-28T12:04:44;100291.56;;;11.29;45.09
38780;BME280;29273;49.962;9.768;2024-02-28T12:07:10;100290.16;;;11.33;44.74
38780;BME280;29273;49.962;9.768;2024-02-28T12:09:36;100281.22;;;11.34;44.08
38780;BME280;29273;49.962;9.768;2024-02-28T12:12:02;100287.56;;;11.40;44.50
38780;BME280;29273;49.962;9.768;2024-02-28T12:14:36;100287.19;;;11.50;46.01
38780;BME280;29273;49.962;9.768;2024-02-28T12:17:01;100278.63;;;11.47;44.48
38780;BME280;29273;49.962;9.768;2024-02-28T12:19:28;100281.50;;;11.53;43.81
38780;BME280;29273;49.962;9.768;2024-02-28T12:21:54;100282.53;;;11.58;43.41
38780;BME280;29273;49.962;9.768;2024-02-28T12:24:19;100283.81;;;11.62;43.46
38780;BME280;29273;49.962;9.768;2024-02-28T12:26:45;100275.63;;;11.64;43.28
38780;BME280;29273;49.962;9.768;2024-02-28T12:29:11;100260.34;;;11.66;43.00
38780;BME280;29273;49.962;9.768;2024-02-28T12:31:37;100265.25;;;11.69;43.46
38780;BME280;29273;49.962;9.768;2024-02-28T12:34:02;100258.53;;;11.73;43.22
38780;BME280;29273;49.962;9.768;2024-02-28T12:36:29;100263.25;;;11.78;42.91
38780;BME280;29273;49.962;9.768;2024-02-28T12:38:56;100255.72;;;11.81;42.41
38780;BME280;29273;49.962;9.768;2024-02-28T12:41:23;100251.63;;;11.85;42.10
38780;BME280;29273;49.962;9.768;2024-02-28T12:43:49;100246.13;;;11.87;41.95
38780;BME280;29273;49.962;9.768;2024-02-28T12:46:15;100249.22;;;11.91;42.09
38780;BME280;29273;49.962;9.768;2024-02-28T12:48:41;100241.72;;;11.94;42.27
38780;BME280;29273;49.962;9.768;2024-02-28T12:51:09;100239.28;;;11.99;42.92
38780;BME280;29273;49.962;9.768;2024-02-28T12:53:36;100240.88;;;12.00;41.79